Time;durP1;ratioP1;P1;durP2;ratioP2;P2;SDS_P1;SDS_P2;PMS_P1;PMS_P2;Temp;Humidity;BMP_temperature;BMP_pressure;BME280_temperature;BME280_humidity;BME280_pressure;Samples;Min_cycle;Max_cycle;Signal;HPM_P1;HPM_P2
2022/10/30 00:01:52;;;;;;;1999.90;999.90;;;;;;;12.84;100.00;95611.44;5055085;28;20180;-62
2022/10/30 00:04:17;;;;;;;1999.90;999.90;;;;;;;12.87;100.00;95625.09;5055073;28;20190;-63
2022/10/30 00:06:42;;;;;;;1999.90;999.90;;;;;;;12.84;100.00;95623.19;5055362;28;20173;-63
2022/10/30 00:09:09;;;;;;;1999.90;999.90;;;;;;;12.85;100.00;95624.72;5054895;28;20192;-63
2022/10/30 00:11:34;;;;;;;1999.90;999.90;;;;;;;12.85;100.00;95638.44;5054941;28;20174;-63
2022/10/30 00:14:00;;;;;;;1999.90;999.90;;;;;;;12.91;100.00;95641.50;5054926;28;20188;-63
2022/10/30 00:16:25;;;;;;;1999.90;999.90;;;;;;;12.94;100.00;95665.34;5054959;28;20213;-63
2022/10/30 00:18:51;;;;;;;1999.90;999.90;;;;;;;12.96;100.00;95671.19;5054925;28;20184;-66
2022/10/30 00:21:17;;;;;;;1999.90;999.90;;;;;;;12.99;100.00;95670.38;5054765;28;20209;-61
2022/10/30 00:23:50;;;;;;;1999.90;999.90;;;;;;;12.98;100.00;95671.59;5054646;28;20173;-61
2022/10/30 00:26:17;;;;;;;1999.90;999.90;;;;;;;12.99;100.00;95681.34;5055285;28;20267;-61
2022/10/30 00:28:42;;;;;;;1999.90;999.90;;;;;;;13.02;100.00;95686.03;5054362;28;20256;-62
2022/10/30 00:31:08;;;;;;;1999.90;999.90;;;;;;;13.01;100.00;95687.22;5054425;28;20194;-62
2022/10/30 00:33:34;;;;;;;1999.90;999.90;;;;;;;12.97;100.00;95681.72;5054460;28;20174;-62
2022/10/30 00:36:00;;;;;;;1999.90;999.90;;;;;;;12.97;100.00;95689.19;5054400;28;20180;-78
2022/10/30 00:38:25;;;;;;;1999.90;999.90;;;;;;;12.96;100.00;95687.63;5054063;28;20178;-77
2022/10/30 00:40:51;;;;;;;1999.90;999.90;;;;;;;12.90;100.00;95695.53;5054230;28;20177;-64
2022/10/30 00:43:30;;;;;;;1999.90;999.90;;;;;;;12.91;100.00;95685.34;5054382;28;20180;-64
2022/10/30 00:46:00;;;;;;;1999.90;999.90;;;;;;;12.86;100.00;95672.09;5054393;28;20180;-64
2022/10/30 00:48:25;;;;;;;1999.90;999.90;;;;;;;12.77;100.00;95655.38;5053994;28;20212;-64
2022/10/30 00:50:52;;;;;;;1999.90;999.90;;;;;;;12.74;100.00;95658.94;5053423;28;20197;-63
2022/10/30 00:53:20;;;;;;;1999.90;999.90;;;;;;;12.75;100.00;95653.03;5054679;28;20170;-64
2022/10/30 00:55:55;;;;;;;1999.90;999.90;;;;;;;12.78;100.00;95659.66;5054828;28;20184;-75
2022/10/30 00:58:25;;;;;;;1999.90;999.90;;;;;;;12.70;100.00;95658.19;5054147;28;20173;-64
2022/10/30 01:00:54;;;;;;;1999.90;999.90;;;;;;;12.67;100.00;95661.75;5053986;28;20169;-62
2022/10/30 01:03:20;;;;;;;1999.90;999.90;;;;;;;12.60;100.00;95657.13;5053778;28;20179;-63
2022/10/30 01:05:51;;;;;;;1999.90;999.90;;;;;;;12.55;100.00;95651.34;5053737;28;20173;-62
2022/10/30 01:08:16;;;;;;;1999.90;999.90;;;;;;;12.49;100.00;95655.69;5053889;28;20185;-62
2022/10/30 01:10:42;;;;;;;1999.90;999.90;;;;;;;12.45;100.00;95652.22;5053659;28;20178;-62
2022/10/30 01:13:08;;;;;;;1999.90;999.90;;;;;;;12.47;100.00;95650.66;5053680;28;20181;-77
2022/10/30 01:15:39;;;;;;;1999.90;999.90;;;;;;;12.46;100.00;95659.28;5054096;28;20176;-66
2022/10/30 01:18:19;;;;;;;1999.90;999.90;;;;;;;12.45;100.00;95674.13;5053534;28;20174;-65
2022/10/30 01:21:01;;;;;;;1999.90;999.90;;;;;;;12.34;100.00;95657.81;5054386;28;20218;-66
2022/10/30 01:23:29;;;;;;;1999.90;999.90;;;;;;;12.25;100.00;95662.22;5054295;28;20228;-66
2022/10/30 01:26:16;;;;;;;1999.90;999.90;;;;;;;12.31;100.00;95668.84;5053780;28;20183;-66
2022/10/30 01:29:24;;;;;;;1999.90;999.90;;;;;;;12.38;100.00;95663.25;5053530;28;20236;-66
2022/10/30 01:32:02;;;;;;;1999.90;999.90;;;;;;;12.37;100.00;95661.72;5048076;28;20189;-64
2022/10/30 01:34:39;;;;;;;1999.90;999.90;;;;;;;12.32;100.00;95648.47;5053877;28;20253;-64
2022/10/30 01:37:27;;;;;;;1999.90;999.90;;;;;;;12.26;100.00;95639.94;5053216;28;20177;-63
2022/10/30 01:39:53;;;;;;;1999.90;999.90;;;;;;;12.22;100.00;95644.66;5054068;28;20209;-64
2022/10/30 01:42:43;;;;;;;1999.90;999.90;;;;;;;12.26;100.00;95644.63;5053539;28;20213;-64
2022/10/30 01:45:34;;;;;;;1999.90;999.90;;;;;;;12.28;100.00;95642.25;5053493;28;20182;-64
2022/10/30 01:48:21;;;;;;;1999.90;999.90;;;;;;;12.26;100.00;95639.94;5043333;28;20189;-64
2022/10/30 01:51:12;;;;;;;1999.90;999.90;;;;;;;12.18;100.00;95632.97;5053808;28;20200;-61
2022/10/30 01:53:56;;;;;;;1999.90;999.90;;;;;;;12.14;100.00;95629.50;5053530;28;20173;-73
2022/10/30 01:56:54;;;;;;;1999.90;999.90;;;;;;;12.11;100.00;95627.56;5053795;28;20172;-74
2022/10/30 01:59:24;;;;;;;1999.90;999.90;;;;;;;12.10;100.00;95636.19;5053415;28;20195;-73
2022/10/30 02:01:50;;;;;;;1999.90;999.90;;;;;;;12.18;100.00;95645.88;5054988;28;20173;-72
2022/10/30 02:04:16;;;;;;;1999.90;999.90;;;;;;;12.21;100.00;95651.31;5057385;28;20196;-73
2022/10/30 02:06:42;;;;;;;1999.90;999.90;;;;;;;12.16;100.00;95646.28;5057152;28;20183;-72
2022/10/30 02:09:07;;;;;;;1999.90;999.90;;;;;;;12.10;100.00;95652.63;5057173;28;20234;-61
2022/10/30 02:11:34;;;;;;;1999.90;999.90;;;;;;;12.12;100.00;95661.19;5057266;28;20181;-66
2022/10/30 02:14:04;;;;;;;1999.90;999.90;;;;;;;12.11;100.00;95654.94;5057140;28;20176;-65
2022/10/30 02:16:30;;;;;;;1999.90;999.90;;;;;;;12.07;100.00;95647.94;5057356;28;20179;-66
2022/10/30 02:18:56;;;;;;;1999.90;999.90;;;;;;;12.01;100.00;95639.41;5056705;28;20195;-64
2022/10/30 02:21:21;;;;;;;1999.90;999.90;;;;;;;11.96;100.00;95636.31;5057063;28;20180;-67
2022/10/30 02:23:46;;;;;;;1999.90;999.90;;;;;;;11.91;100.00;95634.03;5057144;28;20179;-66
2022/10/30 02:26:12;;;;;;;1999.90;999.90;;;;;;;11.90;100.00;95637.94;5056688;28;20185;-64
2022/10/30 02:28:37;;;;;;;1999.90;999.90;;;;;;;11.87;100.00;95633.28;5056934;28;20224;-66
2022/10/30 02:31:02;;;;;;;1999.90;999.90;;;;;;;11.85;100.00;95624.69;5056549;28;20201;-61
2022/10/30 02:33:28;;;;;;;1999.90;999.90;;;;;;;11.83;100.00;95619.63;5056656;28;20174;-62
2022/10/30 02:35:53;;;;;;;1999.90;999.90;;;;;;;11.84;100.00;95623.16;5056732;28;20203;-61
2022/10/30 02:38:19;;;;;;;1999.90;999.90;;;;;;;11.81;100.00;95618.50;5056651;28;20184;-60
2022/10/30 02:40:44;;;;;;;1999.90;999.90;;;;;;;11.79;100.00;95616.16;5056603;28;20191;-61
2022/10/30 02:43:10;;;;;;;1999.90;999.90;;;;;;;11.78;100.00;95608.34;5056718;28;20179;-61
2022/10/30 02:45:35;;;;;;;1999.90;999.90;;;;;;;11.77;100.00;95604.81;5056106;28;20244;-78
2022/10/30 02:48:00;;;;;;;1999.90;999.90;;;;;;;11.72;100.00;95594.34;5058272;28;20167;-78
2022/10/30 02:50:26;;;;;;;1999.90;999.90;;;;;;;11.68;100.00;95588.13;5056406;28;20212;-79
2022/10/30 02:52:51;;;;;;;1999.90;999.90;;;;;;;11.64;100.00;95586.59;5056244;28;20206;-77
2022/10/30 02:55:17;;;;;;;1999.90;999.90;;;;;;;11.53;100.00;95581.19;5056394;28;20175;-78
2022/10/30 02:57:42;;;;;;;1999.90;999.90;;;;;;;11.51;100.00;95571.84;5056384;28;20178;-77
2022/10/30 03:00:08;;;;;;;1999.90;999.90;;;;;;;11.44;100.00;95574.63;5056270;28;20188;-80
2022/10/30 03:02:33;;;;;;;1999.90;999.90;;;;;;;11.44;100.00;95566.44;5056732;28;20171;-64
2022/10/30 03:04:59;;;;;;;1999.90;999.90;;;;;;;11.41;100.00;95568.03;5056516;28;20254;-64
2022/10/30 03:07:24;;;;;;;1999.90;999.90;;;;;;;11.37;100.00;95558.28;5056788;28;20205;-78
2022/10/30 03:09:51;;;;;;;1999.90;999.90;;;;;;;11.32;100.00;95551.28;5056530;28;20193;-78
2022/10/30 03:12:16;;;;;;;1999.90;999.90;;;;;;;11.30;100.00;95550.16;5055728;28;20201;-77
2022/10/30 03:14:42;;;;;;;1999.90;999.90;;;;;;;11.29;100.00;95543.13;5056044;28;20174;-75
2022/10/30 03:17:07;;;;;;;1999.90;999.90;;;;;;;11.29;100.00;95537.66;5056643;28;20207;-75
2022/10/30 03:19:34;;;;;;;1999.90;999.90;;;;;;;11.28;100.00;95525.16;5055552;28;20179;-75
2022/10/30 03:21:59;;;;;;;1999.90;999.90;;;;;;;11.23;100.00;95520.94;5056564;28;20172;-76
2022/10/30 03:24:25;;;;;;;1999.90;999.90;;;;;;;11.23;100.00;95520.94;5057145;28;20206;-62
2022/10/30 03:26:50;;;;;;;1999.90;999.90;;;;;;;11.14;100.00;95503.44;5056337;28;20176;-61
2022/10/30 03:29:15;;;;;;;1999.90;999.90;;;;;;;11.08;100.00;95499.56;5055743;28;20223;-62
2022/10/30 03:31:41;;;;;;;1999.90;999.90;;;;;;;11.00;100.00;95479.72;5055963;28;20167;-61
2022/10/30 03:34:06;;;;;;;1999.90;999.90;;;;;;;10.93;100.00;95454.44;5055824;28;20172;-63
2022/10/30 03:36:32;;;;;;;1999.90;999.90;;;;;;;10.98;100.00;95423.94;5056326;28;20178;-63
2022/10/30 03:38:57;;;;;;;1999.90;999.90;;;;;;;11.09;100.00;95402.72;5055600;28;20178;-63
2022/10/30 03:41:22;;;;;;;1999.90;999.90;;;;;;;11.12;100.00;95401.94;5055775;28;20172;-66
2022/10/30 03:43:48;;;;;;;1999.90;999.90;;;;;;;11.06;100.00;95398.06;5055282;28;20194;-74
2022/10/30 03:46:13;;;;;;;1999.90;999.90;;;;;;;11.11;100.00;95389.47;5056026;28;20180;-74
2022/10/30 03:48:38;;;;;;;1999.90;999.90;;;;;;;11.15;100.00;95392.94;5055789;28;20182;-74
2022/10/30 03:51:04;;;;;;;1999.90;999.90;;;;;;;11.10;100.00;95390.63;5055483;28;20178;-77
2022/10/30 03:53:30;;;;;;;1999.90;999.90;;;;;;;11.07;100.00;95394.19;5055347;28;20590;-76
2022/10/30 03:56:00;;;;;;;1999.90;999.90;;;;;;;11.06;100.00;95387.94;5055492;28;20188;-74
2022/10/30 03:58:27;;;;;;;1999.90;999.90;;;;;;;11.04;100.00;95389.53;5055243;28;20177;-67
2022/10/30 04:00:52;;;;;;;1999.90;999.90;;;;;;;11.01;100.00;95384.88;5055723;28;20233;-67
2022/10/30 04:03:18;;;;;;;1999.90;999.90;;;;;;;10.99;100.00;95392.69;5055162;28;20277;-61
2022/10/30 04:05:43;;;;;;;1999.90;999.90;;;;;;;11.00;100.00;95394.25;5055015;28;20190;-61
2022/10/30 04:08:13;;;;;;;1999.90;999.90;;;;;;;11.02;100.00;95380.94;5054859;28;20189;-61
2022/10/30 04:10:43;;;;;;;1999.90;999.90;;;;;;;11.01;100.00;95376.66;5054912;28;20293;-62
2022/10/30 04:13:10;;;;;;;1999.90;999.90;;;;;;;11.02;100.00;95367.28;5054532;28;20175;-62
2022/10/30 04:15:35;;;;;;;1999.90;999.90;;;;;;;11.00;100.00;95356.00;5054909;28;20175;-62
2022/10/30 04:18:01;;;;;;;1999.90;999.90;;;;;;;11.00;100.00;95345.06;5055495;28;20182;-65
2022/10/30 04:20:27;;;;;;;1999.90;999.90;;;;;;;10.95;100.00;95343.56;5054808;28;20174;-76
2022/10/30 04:22:57;;;;;;;1999.90;999.90;;;;;;;10.82;100.00;95328.09;5055342;28;20220;-76
2022/10/30 04:25:23;;;;;;;1999.90;999.90;;;;;;;10.87;100.00;95303.03;5054733;28;20189;-79
2022/10/30 04:27:49;;;;;;;1999.90;999.90;;;;;;;10.91;100.00;95284.66;5054470;28;20219;-76
2022/10/30 04:30:14;;;;;;;1999.90;999.90;;;;;;;10.95;100.00;95271.72;5054471;28;20195;-73
2022/10/30 04:32:47;;;;;;;1999.90;999.90;;;;;;;10.92;100.00;95273.31;5054424;28;20196;-71
2022/10/30 04:35:13;;;;;;;1999.90;999.90;;;;;;;10.88;100.00;95269.06;5054685;28;20175;-67
2022/10/30 04:37:38;;;;;;;1999.90;999.90;;;;;;;10.86;100.00;95268.72;5054661;28;20180;-65
2022/10/30 04:40:04;;;;;;;1999.90;999.90;;;;;;;10.84;100.00;95257.41;5054226;28;20184;-75
2022/10/30 04:42:29;;;;;;;1999.90;999.90;;;;;;;10.82;100.00;95257.06;5054020;28;20177;-69
2022/10/30 04:44:55;;;;;;;1999.90;999.90;;;;;;;10.82;100.00;95254.34;5054069;28;20175;-75
2022/10/30 04:47:20;;;;;;;1999.90;999.90;;;;;;;10.79;100.00;95257.88;5053895;28;20179;-72
2022/10/30 04:49:45;;;;;;;1999.90;999.90;;;;;;;10.78;100.00;95256.34;5054285;28;20195;-73
2022/10/30 04:52:11;;;;;;;1999.90;999.90;;;;;;;10.75;100.00;95254.41;5054219;28;20181;-73
2022/10/30 04:54:36;;;;;;;1999.90;999.90;;;;;;;10.71;100.00;95248.22;5054186;28;20178;-66
2022/10/30 04:57:02;;;;;;;1999.90;999.90;;;;;;;10.68;100.00;95252.53;5053833;28;20174;-62
2022/10/30 04:59:27;;;;;;;1999.90;999.90;;;;;;;10.65;100.00;95242.44;5054019;28;20219;-63
2022/10/30 05:01:52;;;;;;;1999.90;999.90;;;;;;;10.60;100.00;95239.38;5054201;28;20175;-64
2022/10/30 05:04:18;;;;;;;1999.90;999.90;;;;;;;10.56;100.00;95228.47;5054420;28;20193;-63
2022/10/30 05:06:43;;;;;;;1999.90;999.90;;;;;;;10.53;100.00;95215.66;5053726;28;20180;-63
2022/10/30 05:09:08;;;;;;;1999.90;999.90;;;;;;;10.50;100.00;95207.47;5053822;28;20189;-63
2022/10/30 05:11:34;;;;;;;1999.90;999.90;;;;;;;10.48;100.00;95198.94;5053925;28;20178;-63
2022/10/30 05:13:59;;;;;;;1999.90;999.90;;;;;;;10.46;100.00;95190.38;5053659;28;20183;-61
2022/10/30 05:16:24;;;;;;;1999.90;999.90;;;;;;;10.45;100.00;95178.66;5054367;28;20171;-61
2022/10/30 05:18:49;;;;;;;1999.90;999.90;;;;;;;10.45;100.00;95169.72;5053771;28;20174;-61
2022/10/30 05:21:15;;;;;;;1999.90;999.90;;;;;;;10.40;100.00;95164.69;5053687;28;20270;-61
2022/10/30 05:23:40;;;;;;;1999.90;999.90;;;;;;;10.36;100.00;95164.75;5054062;28;20179;-61
2022/10/30 05:26:06;;;;;;;1999.90;999.90;;;;;;;10.36;100.00;95153.81;5053784;28;20174;-60
2022/10/30 05:28:31;;;;;;;1999.90;999.90;;;;;;;10.35;100.00;95146.03;5053119;28;20221;-60
2022/10/30 05:30:56;;;;;;;1999.90;999.90;;;;;;;10.32;100.00;95133.22;5053587;28;20273;-80
2022/10/30 05:33:22;;;;;;;1999.90;999.90;;;;;;;10.33;100.00;95129.28;5053758;28;20207;-73
2022/10/30 05:35:47;;;;;;;1999.90;999.90;;;;;;;10.21;100.00;95129.81;5052954;28;20178;-74
2022/10/30 05:38:12;;;;;;;1999.90;999.90;;;;;;;10.18;100.00;95114.25;5053908;28;20170;-71
2022/10/30 05:40:38;;;;;;;1999.90;999.90;;;;;;;10.19;100.00;95089.31;5053612;28;20174;-72
2022/10/30 05:43:04;;;;;;;1999.90;999.90;;;;;;;10.24;100.00;95082.63;5053471;28;20216;-73
2022/10/30 05:45:30;;;;;;;1999.90;999.90;;;;;;;10.26;100.00;95072.09;5053346;28;20179;-73
2022/10/30 05:47:56;;;;;;;1999.90;999.90;;;;;;;10.25;100.00;95062.34;5053919;28;20177;-72
2022/10/30 05:50:22;;;;;;;1999.90;999.90;;;;;;;10.25;100.00;95059.59;5053371;28;20204;-61
2022/10/30 05:52:47;;;;;;;1999.90;999.90;;;;;;;10.28;100.00;95054.13;5053501;28;20182;-66
2022/10/30 05:55:13;;;;;;;1999.90;999.90;;;;;;;10.28;100.00;95047.88;5053366;28;20215;-66
2022/10/30 05:57:38;;;;;;;1999.90;999.90;;;;;;;10.29;100.00;95049.41;5053184;28;20240;-66
2022/10/30 06:00:04;;;;;;;1999.90;999.90;;;;;;;10.31;100.00;95041.59;5053866;28;20176;-66
2022/10/30 06:02:29;;;;;;;1999.90;999.90;;;;;;;10.35;100.00;95042.31;5053324;28;20178;-66
2022/10/30 06:04:55;;;;;;;1999.90;999.90;;;;;;;10.36;100.00;95052.06;5053754;28;20194;-66
2022/10/30 06:07:20;;;;;;;1999.90;999.90;;;;;;;10.45;100.00;95047.63;5054063;28;20182;-81
2022/10/30 06:09:46;;;;;;;1999.90;999.90;;;;;;;10.58;100.00;95061.50;5053241;28;20205;-61
2022/10/30 06:12:11;;;;;;;1999.90;999.90;;;;;;;10.70;100.00;95074.63;5053256;28;20168;-61
2022/10/30 06:14:36;;;;;;;1999.90;999.90;;;;;;;10.88;100.00;95091.50;5053093;28;20225;-61
2022/10/30 06:17:02;;;;;;;1999.90;999.90;;;;;;;10.96;100.00;95125.75;5053150;28;20179;-61
2022/10/30 06:19:27;;;;;;;1999.90;999.90;;;;;;;11.21;100.00;95158.94;5053159;28;20184;-61
2022/10/30 06:21:53;;;;;;;1999.90;999.90;;;;;;;11.46;100.00;95198.44;5052841;28;20197;-61
2022/10/30 06:24:19;;;;;;;1999.90;999.90;;;;;;;11.84;100.00;95256.50;5053202;28;20183;-62
2022/10/30 06:26:44;;;;;;;1999.90;999.90;;;;;;;12.27;100.00;95317.59;5053889;28;20259;-77
2022/10/30 06:29:09;;;;;;;1999.90;999.90;;;;;;;12.69;100.00;95410.03;5053156;28;20227;-63
2022/10/30 06:31:35;;;;;;;1999.90;999.90;;;;;;;13.11;100.00;95475.16;5052853;28;20174;-65
2022/10/30 06:34:00;;;;;;;1999.90;999.90;;;;;;;13.52;100.00;95533.25;5052902;28;20235;-64
2022/10/30 06:36:26;;;;;;;1999.90;999.90;;;;;;;14.06;100.00;95589.50;5052824;28;20249;-65
2022/10/30 06:38:51;;;;;;;1999.90;999.90;;;;;;;14.54;100.00;95619.25;5052978;28;20182;-64
2022/10/30 06:41:16;;;;;;;1999.90;999.90;;;;;;;15.03;100.00;95648.47;5052830;28;20213;-65
2022/10/30 06:43:42;;;;;;;1999.90;999.90;;;;;;;15.24;100.00;95665.31;5052884;28;20224;-76
2022/10/30 06:46:07;;;;;;;1999.90;999.90;;;;;;;15.41;100.00;95683.41;5053097;28;20276;-63
2022/10/30 06:48:32;;;;;;;1999.90;999.90;;;;;;;15.61;100.00;95692.41;5054643;28;20174;-66
2022/10/30 06:50:59;;;;;;;1999.90;999.90;;;;;;;16.04;100.00;95706.75;5057061;28;20184;-66
2022/10/30 06:53:25;;;;;;;1999.90;999.90;;;;;;;16.47;100.00;95713.97;5057048;28;20201;-66
2022/10/30 06:55:55;;;;;;;1999.90;999.90;;;;;;;16.69;100.00;95717.72;5056866;28;20181;-67
2022/10/30 06:58:20;;;;;;;1999.90;999.90;;;;;;;17.35;100.00;95720.59;5056500;28;20174;-67
2022/10/30 07:00:46;;;;;;;1999.90;999.90;;;;;;;18.01;100.00;95732.41;5056534;28;20184;-66
2022/10/30 07:03:11;;;;;;;1999.90;999.90;;;;;;;18.47;100.00;95736.47;5056801;28;20214;-78
2022/10/30 07:05:36;;;;;;;1999.90;999.90;;;;;;;18.55;100.00;95743.31;5056132;28;20202;-67
2022/10/30 07:08:02;;;;;;;1999.90;999.90;;;;;;;18.93;100.00;95746.75;5055817;28;20184;-66
2022/10/30 07:10:27;;;;;;;1999.90;999.90;;;;;;;19.25;100.00;95740.88;5056682;28;20209;-67
2022/10/30 07:12:54;;;;;;;1999.90;999.90;;;;;;;19.55;100.00;95756.78;5056156;28;20209;-67
2022/10/30 07:15:20;;;;;;;1999.90;999.90;;;;;;;20.15;100.00;95758.06;5056170;28;20387;-67
2022/10/30 07:17:53;;;;;;;1999.90;999.90;;;;;;;20.78;100.00;95763.03;5055978;28;20213;-67
2022/10/30 07:20:18;;;;;;;1999.90;999.90;;;;;;;21.03;100.00;95760.00;5056658;28;20174;-66
2022/10/30 07:22:44;;;;;;;1999.90;999.90;;;;;;;21.11;100.00;95761.22;5055953;28;20185;-67
2022/10/30 07:25:09;;;;;;;1999.90;999.90;;;;;;;21.00;100.00;95760.91;5055766;28;20219;-79
2022/10/30 07:27:46;;;;;;;1999.90;999.90;;;;;;;20.96;100.00;95765.84;5055614;28;20244;-80
2022/10/30 07:30:12;;;;;;;1999.90;999.90;;;;;;;20.75;100.00;95764.72;5056396;28;20193;-78
2022/10/30 07:32:37;;;;;;;1999.90;999.90;;;;;;;20.35;100.00;95769.53;5056238;28;20174;-80
2022/10/30 07:35:04;;;;;;;1999.90;999.90;;;;;;;20.28;100.00;95769.81;5056418;28;20181;-79
2022/10/30 07:37:29;;;;;;;1999.90;999.90;;;;;;;20.46;100.00;95774.66;5055371;28;20178;-82
2022/10/30 07:39:54;;;;;;;1999.90;999.90;;;;;;;20.67;100.00;95777.34;5055345;28;20180;-65
2022/10/30 07:42:20;;;;;;;1999.90;999.90;;;;;;;20.83;100.00;95767.97;5056058;28;20174;-73
2022/10/30 07:44:45;;;;;;;1999.90;999.90;;;;;;;21.05;100.00;95774.97;5055196;28;20260;-73
2022/10/30 07:47:11;;;;;;;1999.90;999.90;;;;;;;21.63;100.00;95770.00;5055501;28;20181;-74
2022/10/30 07:49:36;;;;;;;1999.90;999.90;;;;;;;21.98;100.00;95774.00;5055214;28;20197;-75
2022/10/30 07:52:01;;;;;;;1999.90;999.90;;;;;;;22.38;100.00;95774.47;5055011;28;20174;-74
2022/10/30 07:54:27;;;;;;;1999.90;999.90;;;;;;;22.68;100.00;95774.69;5055293;28;20243;-75
2022/10/30 07:56:52;;;;;;;1999.90;999.90;;;;;;;23.40;100.00;95768.63;5055711;28;20174;-73
2022/10/30 07:59:17;;;;;;;1999.90;999.90;;;;;;;23.44;100.00;95777.56;5054836;28;20178;-67
2022/10/30 08:01:43;;;;;;;1999.90;999.90;;;;;;;23.29;100.00;95785.13;5055314;28;20171;-68
2022/10/30 08:04:10;;;;;;;1999.90;999.90;;;;;;;22.95;100.00;95783.63;5054964;28;20190;-67
2022/10/30 08:06:35;;;;;;;1999.90;999.90;;;;;;;22.86;100.00;95780.13;5055327;28;20258;-67
2022/10/30 08:09:01;;;;;;;1999.90;999.90;;;;;;;22.73;100.00;95785.94;5054910;28;20288;-67
2022/10/30 08:11:26;;;;;;;1999.90;999.90;;;;;;;22.34;100.00;95793.38;5054693;28;20170;-67
2022/10/30 08:13:51;;;;;;;1999.90;999.90;;;;;;;22.52;100.00;95784.94;5054982;28;20245;-68
2022/10/30 08:16:17;;;;;;;1999.90;999.90;;;;;;;23.36;98.93;95784.75;5054936;28;20182;-68
2022/10/30 08:18:42;;;;;;;1999.90;999.90;;;;;;;23.77;91.20;95798.50;5055703;28;20174;-66
2022/10/30 08:21:08;;;;;;;1999.90;999.90;;;;;;;24.39;87.09;95787.16;5054749;28;20181;-66
2022/10/30 08:23:34;;;;;;;1999.90;999.90;;;;;;;25.10;83.04;95791.03;5054504;28;20174;-65
2022/10/30 08:25:59;;;;;;;1999.90;999.90;;;;;;;25.00;81.06;95791.66;5054838;28;20174;-66
2022/10/30 08:28:25;;;;;;;1999.90;999.90;;;;;;;24.93;81.92;95786.47;5054475;28;20224;-66
2022/10/30 08:30:51;;;;;;;1999.90;999.90;;;;;;;24.85;81.64;95779.78;5054591;28;20209;-66
2022/10/30 08:33:16;;;;;;;1999.90;999.90;;;;;;;25.52;79.00;95776.59;5054745;28;20268;-66
2022/10/30 08:35:49;;;;;;;1999.90;999.90;;;;;;;25.56;77.36;95776.38;5054355;28;20174;-63
2022/10/30 08:38:15;;;;;;;1999.90;999.90;;;;;;;25.33;75.38;95780.94;5054587;28;20169;-67
2022/10/30 08:40:40;;;;;;;1999.90;999.90;;;;;;;25.41;77.61;95776.47;5054026;28;20265;-68
2022/10/30 08:43:06;;;;;;;1999.90;999.90;;;;;;;25.19;74.72;95773.38;5054504;28;20170;-67
2022/10/30 08:45:32;;;;;;;1999.90;999.90;;;;;;;25.36;78.29;95779.97;5054208;28;20209;-67
2022/10/30 08:48:02;;;;;;;1999.90;999.90;;;;;;;25.67;76.11;95777.25;5054016;28;20197;-68
2022/10/30 08:50:29;;;;;;;1999.90;999.90;;;;;;;25.68;75.07;95772.44;5054262;28;20272;-69
2022/10/30 08:52:54;;;;;;;1999.90;999.90;;;;;;;26.15;74.71;95781.09;5054654;28;20178;-74
2022/10/30 08:55:20;;;;;;;1999.90;999.90;;;;;;;26.21;72.85;95776.31;5053992;28;20169;-67
2022/10/30 08:57:45;;;;;;;1999.90;999.90;;;;;;;26.14;74.10;95773.94;5054167;28;20265;-67
2022/10/30 09:00:11;;;;;;;1999.90;999.90;;;;;;;25.88;72.49;95770.38;5054070;28;20180;-68
2022/10/30 09:02:38;;;;;;;1999.90;999.90;;;;;;;26.87;71.69;95770.44;5054153;28;20193;-69
2022/10/30 09:05:05;;;;;;;1999.90;999.90;;;;;;;27.17;68.63;95766.78;5054183;28;20200;-67
2022/10/30 09:07:31;;;;;;;1999.90;999.90;;;;;;;27.52;67.17;95770.03;5054034;28;20265;-68
2022/10/30 09:09:56;;;;;;;1999.90;999.90;;;;;;;27.98;63.94;95764.06;5053876;28;20204;-67
2022/10/30 09:12:21;;;;;;;1999.90;999.90;;;;;;;27.70;64.02;95761.16;5053199;28;20166;-63
2022/10/30 09:14:47;;;;;;;1999.90;999.90;;;;;;;27.94;66.72;95761.50;5053497;28;20177;-62
2022/10/30 09:17:12;;;;;;;1999.90;999.90;;;;;;;28.48;63.93;95767.72;5053783;28;20170;-62
2022/10/30 09:19:38;;;;;;;1999.90;999.90;;;;;;;28.71;60.74;95771.25;5053635;28;20190;-63
2022/10/30 09:22:03;;;;;;;1999.90;999.90;;;;;;;28.69;60.59;95768.22;5053871;28;20261;-62
2022/10/30 09:24:29;;;;;;;1999.90;999.90;;;;;;;29.12;58.21;95772.22;5054144;28;20241;-63
2022/10/30 09:26:55;;;;;;;1999.90;999.90;;;;;;;29.06;56.46;95774.31;5053212;28;20170;-63
2022/10/30 09:29:21;;;;;;;1999.90;999.90;;;;;;;29.08;56.00;95774.53;5052918;28;20226;-77
2022/10/30 09:31:47;;;;;;;1999.90;999.90;;;;;;;29.06;56.22;95774.31;5038169;28;20252;-66
2022/10/30 09:34:13;;;;;;;1999.90;999.90;;;;;;;29.46;56.05;95768.03;5053751;28;20173;-65
2022/10/30 09:36:38;;;;;;;1999.90;999.90;;;;;;;29.56;53.61;95772.84;5053760;28;20166;-66
2022/10/30 09:39:04;;;;;;;1999.90;999.90;;;;;;;29.47;55.02;95770.34;5054039;28;20178;-66
2022/10/30 09:42:13;;;;;;;1999.90;999.90;;;;;;;29.25;55.71;95769.66;5054007;28;20165;-66
2022/10/30 09:45:00;;;;;;;1999.90;999.90;;;;;;;29.12;53.80;95769.41;5054098;28;20178;-66
2022/10/30 09:47:35;;;;;;;1999.90;999.90;;;;;;;29.22;54.61;95770.66;5053205;28;20178;-66
2022/10/30 09:50:13;;;;;;;1999.90;999.90;;;;;;;29.03;56.42;95761.25;5053760;28;20208;-66
2022/10/30 09:52:44;;;;;;;1999.90;999.90;;;;;;;29.11;55.42;95770.69;5054139;28;20169;-63
2022/10/30 09:55:32;;;;;;;1999.90;999.90;;;;;;;28.87;57.88;95764.88;5053283;28;20180;-63
2022/10/30 09:58:27;;;;;;;1999.90;999.90;;;;;;;29.16;53.71;95761.47;5053860;28;20170;-65
2022/10/30 10:01:26;;;;;;;1999.90;999.90;;;;;;;29.55;51.68;95767.72;5053318;28;20177;-63
2022/10/30 10:03:58;;;;;;;1999.90;999.90;;;;;;;29.97;52.62;95775.75;5052203;28;20206;-64
2022/10/30 10:06:24;;;;;;;1999.90;999.90;;;;;;;29.80;49.57;95775.06;5053443;28;20182;-67
2022/10/30 10:08:56;;;;;;;1999.90;999.90;;;;;;;29.56;48.14;95774.88;5053326;28;20174;-67
2022/10/30 10:11:44;;;;;;;1999.90;999.90;;;;;;;30.33;46.04;95771.66;5053675;28;20174;-79
2022/10/30 10:14:22;;;;;;;1999.90;999.90;;;;;;;29.92;47.41;95779.34;5053406;28;20166;-79
2022/10/30 10:16:51;;;;;;;1999.90;999.90;;;;;;;29.11;47.95;95776.34;5054001;28;20233;-79
2022/10/30 10:19:27;;;;;;;1999.90;999.90;;;;;;;29.47;46.90;95769.56;5053707;28;20265;-78
2022/10/30 10:22:01;;;;;;;1999.90;999.90;;;;;;;30.01;46.68;95773.41;5053124;28;20208;-78
2022/10/30 10:24:34;;;;;;;1999.90;999.90;;;;;;;30.09;47.48;95771.56;5056804;28;20205;-68
2022/10/30 10:27:15;;;;;;;1999.90;999.90;;;;;;;30.11;47.58;95774.59;5057531;28;20170;-78
2022/10/30 10:29:40;;;;;;;1999.90;999.90;;;;;;;29.93;44.85;95783.72;5057064;28;20221;-65
2022/10/30 10:32:16;;;;;;;1999.90;999.90;;;;;;;29.34;47.28;95766.53;5056801;28;20198;-65
2022/10/30 10:34:50;;;;;;;1999.90;999.90;;;;;;;29.77;45.46;95781.72;5057183;28;20181;-65
2022/10/30 10:37:46;;;;;;;1999.90;999.90;;;;;;;30.71;44.33;95773.44;5057605;28;20161;-65
2022/10/30 10:40:27;;;;;;;1999.90;999.90;;;;;;;30.37;44.70;95772.91;5056498;28;20177;-65
2022/10/30 10:43:14;;;;;;;1999.90;999.90;;;;;;;30.18;43.81;95771.25;5056351;28;20170;-65
2022/10/30 10:45:55;;;;;;;1999.90;999.90;;;;;;;29.68;42.88;95768.72;5075538;28;20185;-65
2022/10/30 10:48:53;;;;;;;1999.90;999.90;;;;;;;29.15;45.80;95763.53;5075664;28;20173;-66
2022/10/30 10:51:28;;;;;;;1999.90;999.90;;;;;;;27.98;48.01;95767.63;5059685;28;20227;-66
2022/10/30 10:53:53;;;;;;;1999.90;999.90;;;;;;;27.14;49.93;95770.63;5058773;28;20165;-66
2022/10/30 10:56:23;;;;;;;1999.90;999.90;;;;;;;26.58;53.67;95768.69;5075844;28;20281;-66